Startpagina
METAR-TAF:

METAR-TAF

Vliegvelden :

Ndjamena, Tsjaad

breedte: 12-08N, lengte: 015-02E, hoogte: 295 m

Actueel weer

Dit bericht is 24 minuten geleden gemaakt, om 18:00 UTC
Wind 7 kt uit het noorden
Temperatuur 24°C
Vochtigheid 13%
Druk 1014 hPa
Zicht: 3500 m
verspreid stof

METAR: FTTJ 231800Z 01007KT 3500 DU NSC 24/M06 Q1014 NOSIG

Tijdstip: 19:24 (18:24 UTC)

Verwachting

Dit bericht is 1 uur en het 24 minuten geleden gemaakt, om 17:00 UTC
Verwachting geldig van 23 om 18 UTC tot 24 om 24 UTC
Wind 12 kt uit het noordnoordoosten
Zicht: 3500 m
verspreid stof
Tijdelijke
van 24 om 07 UTC tot 24 om 11 UTC
Wind 15 kt uit het noordnoordoosten met uitschieters tot 25 kt
Stuifstof

TAF: FTTJ 231700Z 2318/2424 02012KT 3500 DU NSC TEMPO 2407/2411 02015G25KT BLDU

Waarnemingen en weersverwachtingen van meer dan 4000 vliegvelden (METAR en TAF).

De beschikbare stations zijn de gele en rode punten op de kaart.

Ga met uw muis naar het station om de naam te zien.

Klik dan om waarnemingen en weersverwachtingen te zien.

kaart wijzigen: klik op de groene knoppen met een zwart kruis om in te zoomen, op de groene knop met een streepje om uit te zoomen of op de groene pijlen voor aangrenzende kaarten.


METAR-TAF: